sensor_id;sensor_type;location;lat;lon;timestamp;P1;durP1;ratioP1;P2;durP2;ratioP2
72720;SDS011;60835;50.974;10.322;2023-02-05T00:01:22;6.43;;;2.92;;
72720;SDS011;60835;50.974;10.322;2023-02-05T00:03:48;6.55;;;3.30;;
72720;SDS011;60835;50.974;10.322;2023-02-05T00:06:15;6.00;;;3.08;;
72720;SDS011;60835;50.974;10.322;2023-02-05T00:08:41;4.97;;;3.10;;
72720;SDS011;60835;50.974;10.322;2023-02-05T00:11:08;6.22;;;3.28;;
72720;SDS011;60835;50.974;10.322;2023-02-05T00:13:35;8.80;;;3.35;;
72720;SDS011;60835;50.974;10.322;2023-02-05T00:16:06;16.17;;;5.07;;
72720;SDS011;60835;50.974;10.322;2023-02-05T00:18:34;9.98;;;3.90;;
72720;SDS011;60835;50.974;10.322;2023-02-05T00:21:03;8.93;;;3.13;;
72720;SDS011;60835;50.974;10.322;2023-02-05T00:23:30;6.10;;;2.95;;
72720;SDS011;60835;50.974;10.322;2023-02-05T00:25:57;3.97;;;2.72;;
72720;SDS011;60835;50.974;10.322;2023-02-05T00:28:23;4.47;;;2.67;;
72720;SDS011;60835;50.974;10.322;2023-02-05T00:30:50;6.90;;;3.50;;
72720;SDS011;60835;50.974;10.322;2023-02-05T00:33:16;9.68;;;4.63;;
72720;SDS011;60835;50.974;10.322;2023-02-05T00:35:43;12.13;;;5.68;;
72720;SDS011;60835;50.974;10.322;2023-02-05T00:38:11;10.60;;;4.60;;
72720;SDS011;60835;50.974;10.322;2023-02-05T00:40:37;15.20;;;6.00;;
72720;SDS011;60835;50.974;10.322;2023-02-05T00:43:04;13.23;;;4.80;;
72720;SDS011;60835;50.974;10.322;2023-02-05T00:45:30;10.07;;;4.55;;
72720;SDS011;60835;50.974;10.322;2023-02-05T00:48:01;8.98;;;4.45;;
72720;SDS011;60835;50.974;10.322;2023-02-05T00:50:28;11.55;;;4.85;;
72720;SDS011;60835;50.974;10.322;2023-02-05T00:52:54;10.70;;;4.70;;
72720;SDS011;60835;50.974;10.322;2023-02-05T00:55:21;9.38;;;4.47;;
72720;SDS011;60835;50.974;10.322;2023-02-05T00:57:48;11.40;;;5.43;;
72720;SDS011;60835;50.974;10.322;2023-02-05T01:00:15;12.52;;;5.70;;
72720;SDS011;60835;50.974;10.322;2023-02-05T01:02:42;11.05;;;5.20;;
72720;SDS011;60835;50.974;10.322;2023-02-05T01:05:09;14.57;;;6.43;;
72720;SDS011;60835;50.974;10.322;2023-02-05T01:07:35;15.63;;;6.93;;
72720;SDS011;60835;50.974;10.322;2023-02-05T01:10:02;15.10;;;6.60;;
72720;SDS011;60835;50.974;10.322;2023-02-05T01:12:30;15.75;;;6.45;;
72720;SDS011;60835;50.974;10.322;2023-02-05T01:14:59;18.05;;;6.45;;
72720;SDS011;60835;50.974;10.322;2023-02-05T01:17:25;19.63;;;8.35;;
72720;SDS011;60835;50.974;10.322;2023-02-05T01:19:52;10.23;;;3.88;;
72720;SDS011;60835;50.974;10.322;2023-02-05T01:22:18;7.55;;;3.42;;
72720;SDS011;60835;50.974;10.322;2023-02-05T01:24:45;9.73;;;3.90;;
72720;SDS011;60835;50.974;10.322;2023-02-05T01:27:11;12.35;;;4.32;;
72720;SDS011;60835;50.974;10.322;2023-02-05T01:29:38;11.40;;;4.43;;
72720;SDS011;60835;50.974;10.322;2023-02-05T01:32:04;9.00;;;3.70;;
72720;SDS011;60835;50.974;10.322;2023-02-05T01:34:31;8.98;;;4.20;;
72720;SDS011;60835;50.974;10.322;2023-02-05T01:36:57;5.53;;;3.10;;
72720;SDS011;60835;50.974;10.322;2023-02-05T01:39:24;6.57;;;3.25;;
72720;SDS011;60835;50.974;10.322;2023-02-05T01:41:50;5.80;;;2.92;;
72720;SDS011;60835;50.974;10.322;2023-02-05T01:44:18;7.90;;;3.97;;
72720;SDS011;60835;50.974;10.322;2023-02-05T01:46:50;9.00;;;3.17;;
72720;SDS011;60835;50.974;10.322;2023-02-05T01:49:21;5.82;;;3.40;;
72720;SDS011;60835;50.974;10.322;2023-02-05T01:51:52;7.80;;;3.15;;
72720;SDS011;60835;50.974;10.322;2023-02-05T01:54:20;7.25;;;3.42;;
72720;SDS011;60835;50.974;10.322;2023-02-05T01:56:53;5.57;;;3.10;;
72720;SDS011;60835;50.974;10.322;2023-02-05T01:59:27;9.85;;;4.78;;
72720;SDS011;60835;50.974;10.322;2023-02-05T02:01:56;5.22;;;3.13;;
72720;SDS011;60835;50.974;10.322;2023-02-05T02:04:29;11.68;;;3.97;;
72720;SDS011;60835;50.974;10.322;2023-02-05T02:07:13;5.65;;;2.97;;
72720;SDS011;60835;50.974;10.322;2023-02-05T02:09:42;10.98;;;3.38;;
72720;SDS011;60835;50.974;10.322;2023-02-05T02:12:11;6.60;;;3.33;;
72720;SDS011;60835;50.974;10.322;2023-02-05T02:14:41;9.18;;;4.95;;
72720;SDS011;60835;50.974;10.322;2023-02-05T02:17:12;15.88;;;6.80;;
72720;SDS011;60835;50.974;10.322;2023-02-05T02:30:36;13.48;;;5.90;;
72720;SDS011;60835;50.974;10.322;2023-02-05T02:33:11;9.52;;;5.00;;
72720;SDS011;60835;50.974;10.322;2023-02-05T02:35:57;15.95;;;6.15;;
72720;SDS011;60835;50.974;10.322;2023-02-05T02:38:36;11.50;;;5.20;;
72720;SDS011;60835;50.974;10.322;2023-02-05T02:41:12;17.10;;;5.75;;
72720;SDS011;60835;50.974;10.322;2023-02-05T02:43:49;11.02;;;4.80;;
72720;SDS011;60835;50.974;10.322;2023-02-05T02:46:27;12.52;;;4.72;;
72720;SDS011;60835;50.974;10.322;2023-02-05T02:48:59;21.92;;;9.80;;
72720;SDS011;60835;50.974;10.322;2023-02-05T02:51:28;12.55;;;6.15;;
72720;SDS011;60835;50.974;10.322;2023-02-05T02:53:57;16.15;;;7.55;;
72720;SDS011;60835;50.974;10.322;2023-02-05T02:56:27;14.30;;;6.30;;
72720;SDS011;60835;50.974;10.322;2023-02-05T02:58:58;12.48;;;5.95;;
72720;SDS011;60835;50.974;10.322;2023-02-05T03:01:31;10.73;;;5.60;;
72720;SDS011;60835;50.974;10.322;2023-02-05T03:04:05;11.52;;;5.82;;
72720;SDS011;60835;50.974;10.322;2023-02-05T03:06:36;12.57;;;6.70;;
72720;SDS011;60835;50.974;10.322;2023-02-05T03:09:06;11.68;;;5.68;;
72720;SDS011;60835;50.974;10.322;2023-02-05T03:11:38;13.57;;;6.65;;
72720;SDS011;60835;50.974;10.322;2023-02-05T03:14:04;13.00;;;6.65;;
72720;SDS011;60835;50.974;10.322;2023-02-05T03:16:31;12.40;;;5.47;;
72720;SDS011;60835;50.974;10.322;2023-02-05T03:18:58;13.00;;;6.32;;
72720;SDS011;60835;50.974;10.322;2023-02-05T03:21:39;11.55;;;6.18;;
72720;SDS011;60835;50.974;10.322;2023-02-05T03:24:08;13.27;;;7.05;;
72720;SDS011;60835;50.974;10.322;2023-02-05T03:26:35;10.63;;;5.50;;
72720;SDS011;60835;50.974;10.322;2023-02-05T03:29:10;14.90;;;6.25;;
72720;SDS011;60835;50.974;10.322;2023-02-05T03:31:45;12.63;;;6.40;;
72720;SDS011;60835;50.974;10.322;2023-02-05T03:39:48;14.23;;;7.30;;
72720;SDS011;60835;50.974;10.322;2023-02-05T03:42:28;14.38;;;6.10;;
72720;SDS011;60835;50.974;10.322;2023-02-05T03:45:12;17.60;;;8.35;;
72720;SDS011;60835;50.974;10.322;2023-02-05T03:50:49;12.98;;;6.78;;
72720;SDS011;60835;50.974;10.322;2023-02-05T03:56:24;14.98;;;6.88;;
72720;SDS011;60835;50.974;10.322;2023-02-05T03:59:04;14.15;;;7.00;;
72720;SDS011;60835;50.974;10.322;2023-02-05T04:01:32;14.80;;;6.75;;
72720;SDS011;60835;50.974;10.322;2023-02-05T04:03:59;13.82;;;6.85;;
72720;SDS011;60835;50.974;10.322;2023-02-05T04:06:26;10.25;;;5.90;;
72720;SDS011;60835;50.974;10.322;2023-02-05T04:08:52;17.63;;;7.45;;
72720;SDS011;60835;50.974;10.322;2023-02-05T04:11:19;16.88;;;6.65;;
72720;SDS011;60835;50.974;10.322;2023-02-05T04:13:45;16.33;;;6.55;;
72720;SDS011;60835;50.974;10.322;2023-02-05T04:16:12;17.60;;;6.68;;
72720;SDS011;60835;50.974;10.322;2023-02-05T04:18:38;13.98;;;6.82;;
72720;SDS011;60835;50.974;10.322;2023-02-05T04:21:05;14.60;;;6.88;;
72720;SDS011;60835;50.974;10.322;2023-02-05T04:23:31;14.85;;;6.82;;
72720;SDS011;60835;50.974;10.322;2023-02-05T04:25:58;12.75;;;6.95;;
72720;SDS011;60835;50.974;10.322;2023-02-05T04:28:24;9.98;;;4.50;;
72720;SDS011;60835;50.974;10.322;2023-02-05T04:30:51;8.00;;;4.35;;
72720;SDS011;60835;50.974;10.322;2023-02-05T04:33:17;6.25;;;3.30;;
72720;SDS011;60835;50.974;10.322;2023-02-05T04:35:44;8.80;;;3.90;;
72720;SDS011;60835;50.974;10.322;2023-02-05T04:38:10;6.28;;;3.42;;
72720;SDS011;60835;50.974;10.322;2023-02-05T04:40:36;7.25;;;4.00;;
72720;SDS011;60835;50.974;10.322;2023-02-05T04:43:03;9.73;;;4.00;;
72720;SDS011;60835;50.974;10.322;2023-02-05T04:45:30;14.27;;;5.18;;
72720;SDS011;60835;50.974;10.322;2023-02-05T04:47:59;13.40;;;5.68;;
72720;SDS011;60835;50.974;10.322;2023-02-05T04:50:25;13.20;;;6.35;;
72720;SDS011;60835;50.974;10.322;2023-02-05T04:52:52;13.88;;;6.40;;
72720;SDS011;60835;50.974;10.322;2023-02-05T04:55:19;15.52;;;5.95;;
72720;SDS011;60835;50.974;10.322;2023-02-05T04:57:46;14.43;;;6.53;;
72720;SDS011;60835;50.974;10.322;2023-02-05T05:00:12;17.20;;;6.95;;
72720;SDS011;60835;50.974;10.322;2023-02-05T05:02:39;15.55;;;6.70;;
72720;SDS011;60835;50.974;10.322;2023-02-05T05:05:06;18.63;;;7.68;;
72720;SDS011;60835;50.974;10.322;2023-02-05T05:07:32;14.13;;;7.38;;
72720;SDS011;60835;50.974;10.322;2023-02-05T05:09:59;16.23;;;7.18;;
72720;SDS011;60835;50.974;10.322;2023-02-05T05:12:25;13.70;;;6.60;;
72720;SDS011;60835;50.974;10.322;2023-02-05T05:14:52;16.25;;;7.05;;
72720;SDS011;60835;50.974;10.322;2023-02-05T05:17:18;13.43;;;6.50;;
72720;SDS011;60835;50.974;10.322;2023-02-05T05:19:45;16.95;;;6.88;;
72720;SDS011;60835;50.974;10.322;2023-02-05T05:22:13;14.38;;;6.60;;
72720;SDS011;60835;50.974;10.322;2023-02-05T05:24:40;15.13;;;6.35;;
72720;SDS011;60835;50.974;10.322;2023-02-05T05:27:06;16.15;;;6.35;;
72720;SDS011;60835;50.974;10.322;2023-02-05T05:29:33;14.13;;;7.30;;
72720;SDS011;60835;50.974;10.322;2023-02-05T05:32:00;13.23;;;6.53;;
72720;SDS011;60835;50.974;10.322;2023-02-05T05:34:26;10.27;;;5.97;;
72720;SDS011;60835;50.974;10.322;2023-02-05T05:36:53;12.73;;;6.70;;
72720;SDS011;60835;50.974;10.322;2023-02-05T05:39:20;12.88;;;6.07;;
72720;SDS011;60835;50.974;10.322;2023-02-05T05:42:05;12.27;;;6.32;;
72720;SDS011;60835;50.974;10.322;2023-02-05T05:44:50;14.90;;;6.30;;
72720;SDS011;60835;50.974;10.322;2023-02-05T05:47:17;14.10;;;6.28;;
72720;SDS011;60835;50.974;10.322;2023-02-05T05:49:44;11.38;;;6.13;;
72720;SDS011;60835;50.974;10.322;2023-02-05T05:52:11;11.98;;;6.63;;
72720;SDS011;60835;50.974;10.322;2023-02-05T05:54:37;17.92;;;6.28;;
72720;SDS011;60835;50.974;10.322;2023-02-05T05:57:05;14.25;;;6.25;;
72720;SDS011;60835;50.974;10.322;2023-02-05T05:59:33;12.07;;;6.22;;
72720;SDS011;60835;50.974;10.322;2023-02-05T06:02:00;12.50;;;6.35;;
72720;SDS011;60835;50.974;10.322;2023-02-05T06:04:27;14.43;;;6.53;;
72720;SDS011;60835;50.974;10.322;2023-02-05T06:06:54;15.13;;;7.05;;
72720;SDS011;60835;50.974;10.322;2023-02-05T06:09:20;12.88;;;6.35;;
72720;SDS011;60835;50.974;10.322;2023-02-05T06:11:47;15.13;;;7.47;;
72720;SDS011;60835;50.974;10.322;2023-02-05T06:14:13;14.55;;;7.40;;
72720;SDS011;60835;50.974;10.322;2023-02-05T06:16:40;13.07;;;7.10;;
72720;SDS011;60835;50.974;10.322;2023-02-05T06:19:06;13.70;;;5.93;;
72720;SDS011;60835;50.974;10.322;2023-02-05T06:21:33;11.93;;;6.57;;
72720;SDS011;60835;50.974;10.322;2023-02-05T06:23:59;15.50;;;6.97;;
72720;SDS011;60835;50.974;10.322;2023-02-05T06:26:26;12.23;;;6.63;;
72720;SDS011;60835;50.974;10.322;2023-02-05T06:28:52;15.73;;;7.35;;
72720;SDS011;60835;50.974;10.322;2023-02-05T06:31:22;17.33;;;6.68;;
72720;SDS011;60835;50.974;10.322;2023-02-05T06:33:49;24.05;;;10.02;;
72720;SDS011;60835;50.974;10.322;2023-02-05T06:36:16;14.75;;;6.50;;
72720;SDS011;60835;50.974;10.322;2023-02-05T06:38:42;13.30;;;6.47;;
72720;SDS011;60835;50.974;10.322;2023-02-05T06:41:08;18.02;;;7.60;;
72720;SDS011;60835;50.974;10.322;2023-02-05T06:43:35;16.48;;;7.07;;
72720;SDS011;60835;50.974;10.322;2023-02-05T06:46:01;14.80;;;6.75;;
72720;SDS011;60835;50.974;10.322;2023-02-05T06:48:28;17.20;;;7.18;;
72720;SDS011;60835;50.974;10.322;2023-02-05T06:50:54;13.77;;;7.05;;
72720;SDS011;60835;50.974;10.322;2023-02-05T06:53:21;20.33;;;8.10;;
72720;SDS011;60835;50.974;10.322;2023-02-05T06:55:48;12.77;;;6.88;;
72720;SDS011;60835;50.974;10.322;2023-02-05T06:58:14;11.70;;;6.53;;
72720;SDS011;60835;50.974;10.322;2023-02-05T07:00:41;13.35;;;7.18;;
72720;SDS011;60835;50.974;10.322;2023-02-05T07:03:08;15.98;;;7.40;;
72720;SDS011;60835;50.974;10.322;2023-02-05T07:05:34;12.35;;;6.95;;
72720;SDS011;60835;50.974;10.322;2023-02-05T07:08:01;13.25;;;6.28;;
72720;SDS011;60835;50.974;10.322;2023-02-05T07:10:29;13.68;;;6.97;;
72720;SDS011;60835;50.974;10.322;2023-02-05T07:12:56;13.27;;;6.82;;
72720;SDS011;60835;50.974;10.322;2023-02-05T07:15:22;14.23;;;8.05;;
72720;SDS011;60835;50.974;10.322;2023-02-05T07:17:48;14.32;;;7.10;;
72720;SDS011;60835;50.974;10.322;2023-02-05T07:20:15;15.02;;;7.93;;
72720;SDS011;60835;50.974;10.322;2023-02-05T07:22:43;12.98;;;6.70;;
72720;SDS011;60835;50.974;10.322;2023-02-05T07:25:12;16.30;;;7.35;;
72720;SDS011;60835;50.974;10.322;2023-02-05T07:27:38;13.32;;;5.70;;
72720;SDS011;60835;50.974;10.322;2023-02-05T07:30:05;11.88;;;6.30;;
72720;SDS011;60835;50.974;10.322;2023-02-05T07:32:32;11.10;;;5.90;;
72720;SDS011;60835;50.974;10.322;2023-02-05T07:34:58;10.30;;;5.68;;
72720;SDS011;60835;50.974;10.322;2023-02-05T07:37:25;13.20;;;6.43;;
72720;SDS011;60835;50.974;10.322;2023-02-05T07:39:52;11.98;;;6.03;;
72720;SDS011;60835;50.974;10.322;2023-02-05T07:42:18;11.05;;;6.25;;
72720;SDS011;60835;50.974;10.322;2023-02-05T07:44:44;11.38;;;6.55;;
72720;SDS011;60835;50.974;10.322;2023-02-05T07:47:11;15.02;;;6.63;;
72720;SDS011;60835;50.974;10.322;2023-02-05T07:49:40;16.10;;;8.15;;
72720;SDS011;60835;50.974;10.322;2023-02-05T07:52:07;14.68;;;7.13;;
72720;SDS011;60835;50.974;10.322;2023-02-05T07:54:33;19.77;;;8.32;;
72720;SDS011;60835;50.974;10.322;2023-02-05T07:57:00;15.40;;;7.70;;
72720;SDS011;60835;50.974;10.322;2023-02-05T07:59:27;15.35;;;8.10;;
72720;SDS011;60835;50.974;10.322;2023-02-05T08:01:53;15.02;;;7.78;;
72720;SDS011;60835;50.974;10.322;2023-02-05T08:04:20;18.88;;;9.18;;
72720;SDS011;60835;50.974;10.322;2023-02-05T08:06:46;15.75;;;9.32;;
72720;SDS011;60835;50.974;10.322;2023-02-05T08:09:13;20.42;;;8.75;;
72720;SDS011;60835;50.974;10.322;2023-02-05T08:11:39;15.30;;;8.45;;
72720;SDS011;60835;50.974;10.322;2023-02-05T08:14:06;14.95;;;8.60;;
72720;SDS011;60835;50.974;10.322;2023-02-05T08:16:32;18.88;;;9.50;;
72720;SDS011;60835;50.974;10.322;2023-02-05T08:18:59;13.75;;;8.43;;
72720;SDS011;60835;50.974;10.322;2023-02-05T08:21:25;16.45;;;9.80;;
72720;SDS011;60835;50.974;10.322;2023-02-05T08:23:51;18.50;;;10.43;;
72720;SDS011;60835;50.974;10.322;2023-02-05T08:26:18;19.67;;;10.90;;
72720;SDS011;60835;50.974;10.322;2023-02-05T08:28:45;19.27;;;10.40;;
72720;SDS011;60835;50.974;10.322;2023-02-05T08:31:15;18.88;;;9.73;;
72720;SDS011;60835;50.974;10.322;2023-02-05T08:33:44;18.95;;;11.18;;
72720;SDS011;60835;50.974;10.322;2023-02-05T08:36:12;15.35;;;9.02;;
72720;SDS011;60835;50.974;10.322;2023-02-05T08:38:39;11.82;;;7.38;;
72720;SDS011;60835;50.974;10.322;2023-02-05T08:41:06;14.25;;;7.85;;
72720;SDS011;60835;50.974;10.322;2023-02-05T08:43:38;17.00;;;8.60;;
72720;SDS011;60835;50.974;10.322;2023-02-05T08:46:09;14.38;;;7.90;;
72720;SDS011;60835;50.974;10.322;2023-02-05T08:48:37;13.13;;;7.50;;
72720;SDS011;60835;50.974;10.322;2023-02-05T08:51:04;12.38;;;6.93;;
72720;SDS011;60835;50.974;10.322;2023-02-05T08:53:31;10.77;;;6.75;;
72720;SDS011;60835;50.974;10.322;2023-02-05T08:55:59;12.30;;;6.47;;
72720;SDS011;60835;50.974;10.322;2023-02-05T08:58:26;11.20;;;7.25;;
72720;SDS011;60835;50.974;10.322;2023-02-05T09:01:03;15.20;;;7.93;;
72720;SDS011;60835;50.974;10.322;2023-02-05T09:03:35;12.15;;;7.00;;
72720;SDS011;60835;50.974;10.322;2023-02-05T09:06:06;15.05;;;7.32;;
72720;SDS011;60835;50.974;10.322;2023-02-05T09:08:35;10.88;;;6.80;;
72720;SDS011;60835;50.974;10.322;2023-02-05T09:11:02;11.77;;;7.35;;
72720;SDS011;60835;50.974;10.322;2023-02-05T09:13:31;14.38;;;7.57;;
72720;SDS011;60835;50.974;10.322;2023-02-05T09:15:58;11.88;;;7.13;;
72720;SDS011;60835;50.974;10.322;2023-02-05T09:18:24;12.88;;;6.90;;
72720;SDS011;60835;50.974;10.322;2023-02-05T09:20:51;14.85;;;6.65;;
72720;SDS011;60835;50.974;10.322;2023-02-05T09:23:19;13.73;;;7.72;;
72720;SDS011;60835;50.974;10.322;2023-02-05T09:25:45;12.15;;;7.20;;
72720;SDS011;60835;50.974;10.322;2023-02-05T09:28:12;11.15;;;7.38;;
72720;SDS011;60835;50.974;10.322;2023-02-05T09:30:41;12.32;;;7.22;;
72720;SDS011;60835;50.974;10.322;2023-02-05T09:33:10;13.90;;;7.72;;
72720;SDS011;60835;50.974;10.322;2023-02-05T09:35:37;13.60;;;8.43;;
72720;SDS011;60835;50.974;10.322;2023-02-05T09:38:03;17.70;;;8.43;;
72720;SDS011;60835;50.974;10.322;2023-02-05T09:40:31;17.73;;;9.70;;
72720;SDS011;60835;50.974;10.322;2023-02-05T09:43:17;15.68;;;8.40;;
72720;SDS011;60835;50.974;10.322;2023-02-05T09:45:52;17.42;;;8.13;;
72720;SDS011;60835;50.974;10.322;2023-02-05T09:51:15;16.27;;;9.50;;
72720;SDS011;60835;50.974;10.322;2023-02-05T09:53:47;15.85;;;8.80;;
72720;SDS011;60835;50.974;10.322;2023-02-05T09:56:18;17.95;;;9.82;;
72720;SDS011;60835;50.974;10.322;2023-02-05T09:58:49;14.10;;;8.45;;
72720;SDS011;60835;50.974;10.322;2023-02-05T10:01:24;18.77;;;10.27;;
72720;SDS011;60835;50.974;10.322;2023-02-05T10:04:14;14.95;;;8.93;;
72720;SDS011;60835;50.974;10.322;2023-02-05T10:06:45;18.13;;;10.52;;
72720;SDS011;60835;50.974;10.322;2023-02-05T10:09:36;14.40;;;9.43;;
72720;SDS011;60835;50.974;10.322;2023-02-05T10:12:16;17.00;;;9.80;;
72720;SDS011;60835;50.974;10.322;2023-02-05T10:14:57;21.73;;;10.00;;
72720;SDS011;60835;50.974;10.322;2023-02-05T10:26:25;19.10;;;10.60;;
72720;SDS011;60835;50.974;10.322;2023-02-05T10:29:04;20.27;;;11.02;;
72720;SDS011;60835;50.974;10.322;2023-02-05T10:31:53;17.77;;;9.32;;
72720;SDS011;60835;50.974;10.322;2023-02-05T10:37:36;17.83;;;9.77;;
72720;SDS011;60835;50.974;10.322;2023-02-05T10:40:13;18.45;;;9.52;;
72720;SDS011;60835;50.974;10.322;2023-02-05T10:42:44;19.05;;;9.73;;
72720;SDS011;60835;50.974;10.322;2023-02-05T10:45:22;14.93;;;9.00;;
72720;SDS011;60835;50.974;10.322;2023-02-05T10:48:00;14.60;;;8.57;;
72720;SDS011;60835;50.974;10.322;2023-02-05T10:50:42;13.63;;;7.53;;
72720;SDS011;60835;50.974;10.322;2023-02-05T10:53:25;14.55;;;8.73;;
72720;SDS011;60835;50.974;10.322;2023-02-05T10:55:53;16.10;;;9.02;;
72720;SDS011;60835;50.974;10.322;2023-02-05T11:01:11;12.98;;;7.72;;
72720;SDS011;60835;50.974;10.322;2023-02-05T11:03:47;18.65;;;8.82;;
72720;SDS011;60835;50.974;10.322;2023-02-05T11:06:17;16.13;;;8.63;;
72720;SDS011;60835;50.974;10.322;2023-02-05T11:08:45;13.02;;;8.30;;
72720;SDS011;60835;50.974;10.322;2023-02-05T11:11:20;13.63;;;7.75;;
72720;SDS011;60835;50.974;10.322;2023-02-05T11:13:57;14.35;;;7.90;;
72720;SDS011;60835;50.974;10.322;2023-02-05T11:16:35;12.80;;;7.90;;
72720;SDS011;60835;50.974;10.322;2023-02-05T11:19:19;11.85;;;7.45;;
72720;SDS011;60835;50.974;10.322;2023-02-05T11:21:49;15.00;;;8.32;;
72720;SDS011;60835;50.974;10.322;2023-02-05T11:24:25;13.73;;;6.85;;
72720;SDS011;60835;50.974;10.322;2023-02-05T11:27:09;13.05;;;7.90;;
72720;SDS011;60835;50.974;10.322;2023-02-05T11:29:44;13.95;;;7.30;;
72720;SDS011;60835;50.974;10.322;2023-02-05T11:32:44;13.77;;;7.47;;
72720;SDS011;60835;50.974;10.322;2023-02-05T11:35:11;12.45;;;7.25;;
72720;SDS011;60835;50.974;10.322;2023-02-05T11:37:47;12.43;;;6.80;;
72720;SDS011;60835;50.974;10.322;2023-02-05T11:40:21;15.07;;;7.78;;
72720;SDS011;60835;50.974;10.322;2023-02-05T11:42:53;14.15;;;7.90;;
72720;SDS011;60835;50.974;10.322;2023-02-05T11:45:27;13.55;;;7.65;;
72720;SDS011;60835;50.974;10.322;2023-02-05T11:47:55;12.77;;;7.15;;
72720;SDS011;60835;50.974;10.322;2023-02-05T11:50:26;9.73;;;6.75;;
72720;SDS011;60835;50.974;10.322;2023-02-05T11:52:57;11.43;;;7.38;;
72720;SDS011;60835;50.974;10.322;2023-02-05T11:55:34;12.80;;;7.47;;
72720;SDS011;60835;50.974;10.322;2023-02-05T11:58:03;13.85;;;7.72;;
72720;SDS011;60835;50.974;10.322;2023-02-05T12:00:31;13.52;;;8.13;;
72720;SDS011;60835;50.974;10.322;2023-02-05T12:03:12;12.57;;;7.43;;
72720;SDS011;60835;50.974;10.322;2023-02-05T12:05:43;37.83;;;18.08;;
72720;SDS011;60835;50.974;10.322;2023-02-05T12:13:57;12.73;;;7.10;;
72720;SDS011;60835;50.974;10.322;2023-02-05T12:19:19;14.23;;;7.72;;
72720;SDS011;60835;50.974;10.322;2023-02-05T12:21:49;15.88;;;8.18;;
72720;SDS011;60835;50.974;10.322;2023-02-05T12:27:26;13.50;;;8.00;;
72720;SDS011;60835;50.974;10.322;2023-02-05T12:30:21;15.88;;;8.30;;
72720;SDS011;60835;50.974;10.322;2023-02-05T12:33:00;12.82;;;7.90;;
72720;SDS011;60835;50.974;10.322;2023-02-05T12:36:06;14.30;;;8.02;;
72720;SDS011;60835;50.974;10.322;2023-02-05T12:41:32;10.90;;;7.57;;
72720;SDS011;60835;50.974;10.322;2023-02-05T12:49:59;18.67;;;9.02;;
72720;SDS011;60835;50.974;10.322;2023-02-05T12:55:30;15.40;;;8.90;;
72720;SDS011;60835;50.974;10.322;2023-02-05T12:58:16;13.70;;;8.63;;
72720;SDS011;60835;50.974;10.322;2023-02-05T13:00:52;15.15;;;8.77;;
72720;SDS011;60835;50.974;10.322;2023-02-05T13:06:03;13.57;;;8.43;;
72720;SDS011;60835;50.974;10.322;2023-02-05T13:11:13;12.95;;;7.45;;
72720;SDS011;60835;50.974;10.322;2023-02-05T13:14:00;13.00;;;8.23;;
72720;SDS011;60835;50.974;10.322;2023-02-05T13:16:35;12.88;;;7.97;;
72720;SDS011;60835;50.974;10.322;2023-02-05T13:21:58;13.18;;;7.93;;
72720;SDS011;60835;50.974;10.322;2023-02-05T13:24:47;14.77;;;8.40;;
72720;SDS011;60835;50.974;10.322;2023-02-05T13:27:37;16.63;;;7.85;;
72720;SDS011;60835;50.974;10.322;2023-02-05T13:30:36;14.80;;;9.15;;
72720;SDS011;60835;50.974;10.322;2023-02-05T13:33:12;13.63;;;7.70;;
72720;SDS011;60835;50.974;10.322;2023-02-05T13:35:40;16.95;;;9.55;;
72720;SDS011;60835;50.974;10.322;2023-02-05T13:38:18;17.48;;;8.85;;
72720;SDS011;60835;50.974;10.322;2023-02-05T13:46:35;15.43;;;8.70;;
72720;SDS011;60835;50.974;10.322;2023-02-05T13:49:31;13.20;;;8.63;;
72720;SDS011;60835;50.974;10.322;2023-02-05T13:55:14;17.70;;;9.07;;
72720;SDS011;60835;50.974;10.322;2023-02-05T14:03:30;15.68;;;9.60;;
72720;SDS011;60835;50.974;10.322;2023-02-05T14:08:49;16.15;;;9.90;;
72720;SDS011;60835;50.974;10.322;2023-02-05T14:11:23;17.65;;;10.25;;
72720;SDS011;60835;50.974;10.322;2023-02-05T14:16:41;21.10;;;11.55;;
72720;SDS011;60835;50.974;10.322;2023-02-05T14:19:13;21.10;;;11.02;;
72720;SDS011;60835;50.974;10.322;2023-02-05T14:21:56;19.40;;;12.00;;
72720;SDS011;60835;50.974;10.322;2023-02-05T14:24:42;20.45;;;11.90;;
72720;SDS011;60835;50.974;10.322;2023-02-05T14:27:42;18.02;;;10.43;;
72720;SDS011;60835;50.974;10.322;2023-02-05T14:30:50;17.08;;;11.07;;
72720;SDS011;60835;50.974;10.322;2023-02-05T14:38:43;18.63;;;11.68;;
72720;SDS011;60835;50.974;10.322;2023-02-05T14:43:51;15.02;;;9.73;;
72720;SDS011;60835;50.974;10.322;2023-02-05T14:46:29;16.40;;;10.95;;
72720;SDS011;60835;50.974;10.322;2023-02-05T14:49:21;16.40;;;10.45;;
72720;SDS011;60835;50.974;10.322;2023-02-05T14:51:52;17.48;;;10.82;;
72720;SDS011;60835;50.974;10.322;2023-02-05T14:54:42;21.05;;;10.90;;
72720;SDS011;60835;50.974;10.322;2023-02-05T14:57:23;18.67;;;10.90;;
72720;SDS011;60835;50.974;10.322;2023-02-05T15:00:02;14.27;;;9.63;;
72720;SDS011;60835;50.974;10.322;2023-02-05T15:08:00;31.90;;;14.55;;
72720;SDS011;60835;50.974;10.322;2023-02-05T15:10:35;20.33;;;12.63;;
72720;SDS011;60835;50.974;10.322;2023-02-05T15:13:12;19.83;;;12.25;;
72720;SDS011;60835;50.974;10.322;2023-02-05T15:18:32;21.10;;;12.23;;
72720;SDS011;60835;50.974;10.322;2023-02-05T15:21:03;23.85;;;13.40;;
72720;SDS011;60835;50.974;10.322;2023-02-05T15:23:32;24.80;;;14.60;;
72720;SDS011;60835;50.974;10.322;2023-02-05T15:26:24;22.77;;;13.95;;
72720;SDS011;60835;50.974;10.322;2023-02-05T15:29:00;22.35;;;13.43;;
72720;SDS011;60835;50.974;10.322;2023-02-05T15:34:21;23.63;;;13.93;;
72720;SDS011;60835;50.974;10.322;2023-02-05T15:39:47;26.88;;;14.25;;
72720;SDS011;60835;50.974;10.322;2023-02-05T15:42:31;22.60;;;14.68;;
72720;SDS011;60835;50.974;10.322;2023-02-05T15:47:56;26.35;;;15.88;;
72720;SDS011;60835;50.974;10.322;2023-02-05T15:50:23;23.60;;;14.30;;
72720;SDS011;60835;50.974;10.322;2023-02-05T15:52:50;22.02;;;13.38;;
72720;SDS011;60835;50.974;10.322;2023-02-05T15:55:18;21.88;;;14.50;;
72720;SDS011;60835;50.974;10.322;2023-02-05T15:57:46;20.77;;;13.60;;
72720;SDS011;60835;50.974;10.322;2023-02-05T16:00:24;22.75;;;14.05;;
72720;SDS011;60835;50.974;10.322;2023-02-05T16:02:54;29.15;;;16.95;;
72720;SDS011;60835;50.974;10.322;2023-02-05T16:05:23;29.15;;;16.25;;
72720;SDS011;60835;50.974;10.322;2023-02-05T16:07:51;26.38;;;15.30;;
72720;SDS011;60835;50.974;10.322;2023-02-05T16:15:31;27.13;;;17.13;;
72720;SDS011;60835;50.974;10.322;2023-02-05T16:18:04;26.75;;;15.82;;
72720;SDS011;60835;50.974;10.322;2023-02-05T16:20:35;28.08;;;15.82;;
72720;SDS011;60835;50.974;10.322;2023-02-05T16:23:14;25.48;;;15.27;;
72720;SDS011;60835;50.974;10.322;2023-02-05T16:25:54;26.77;;;16.40;;
72720;SDS011;60835;50.974;10.322;2023-02-05T16:28:36;27.08;;;14.93;;
72720;SDS011;60835;50.974;10.322;2023-02-05T16:31:09;34.25;;;16.88;;
72720;SDS011;60835;50.974;10.322;2023-02-05T16:33:53;29.33;;;16.45;;
72720;SDS011;60835;50.974;10.322;2023-02-05T16:36:24;27.00;;;15.43;;
72720;SDS011;60835;50.974;10.322;2023-02-05T16:38:55;27.40;;;16.65;;
72720;SDS011;60835;50.974;10.322;2023-02-05T16:41:26;29.52;;;16.25;;
72720;SDS011;60835;50.974;10.322;2023-02-05T16:43:57;26.92;;;14.30;;
72720;SDS011;60835;50.974;10.322;2023-02-05T16:46:29;25.58;;;15.00;;